Time;durP1;ratioP1;P1;durP2;ratioP2;P2;SDS_P1;SDS_P2;PMS_P1;PMS_P2;Temp;Humidity;BMP_temperature;BMP_pressure;BME280_temperature;BME280_humidity;BME280_pressure;Samples;Min_cycle;Max_cycle;Signal;HPM_P1;HPM_P2
2022/11/24 11:36:51;;;;;;;8.83;0.87;;;11.50;99.90;;;;;;3395991;23;20244;-72
2022/11/24 11:39:25;;;;;;;5.73;0.60;;;11.50;99.90;;;;;;4927985;29;20220;-71
2022/11/24 11:41:59;;;;;;;5.00;0.80;;;11.60;99.90;;;;;;4927199;29;20564;-71
2022/11/24 11:44:34;;;;;;;4.33;1.40;;;11.60;99.90;;;;;;4920271;29;20221;-70
2022/11/24 11:47:09;;;;;;;3.23;0.63;;;11.60;99.90;;;;;;4918106;29;20252;-72
2022/11/24 11:49:38;;;;;;;2.40;0.80;;;11.60;99.90;;;;;;4917964;29;20212;-74
2022/11/24 11:52:37;;;;;;;4.00;0.70;;;11.60;99.90;;;;;;4917643;29;20201;-71
2022/11/24 11:55:28;;;;;;;7.40;0.73;;;11.60;99.90;;;;;;4916873;29;20212;-71
2022/11/24 11:58:03;;;;;;;2.83;0.47;;;11.70;99.90;;;;;;4915584;29;20225;-72
2022/11/24 12:00:35;;;;;;;4.83;1.23;;;11.70;99.90;;;;;;4915963;29;20213;-72
2022/11/24 12:03:29;;;;;;;3.67;0.70;;;11.70;99.90;;;;;;4915712;29;20233;-72
2022/11/24 12:06:08;;;;;;;1.67;0.60;;;11.80;99.90;;;;;;4911949;29;20504;-72
2022/11/24 12:08:49;;;;;;;5.23;0.80;;;11.80;99.90;;;;;;4917224;29;20213;-73
2022/11/24 12:11:23;;;;;;;4.77;0.90;;;11.90;99.90;;;;;;4917895;29;20272;-73
2022/11/24 12:14:13;;;;;;;8.03;0.67;;;11.90;99.90;;;;;;4915798;29;20738;-72
2022/11/24 12:16:48;;;;;;;4.97;0.80;;;11.90;99.90;;;;;;4915138;29;20781;-72
2022/11/24 12:19:40;;;;;;;7.67;0.77;;;11.90;99.90;;;;;;4917611;29;20209;-72
2022/11/24 12:22:13;;;;;;;4.23;1.00;;;11.90;99.90;;;;;;4916799;29;20212;-72
2022/11/24 12:24:48;;;;;;;1.60;0.63;;;11.90;99.90;;;;;;4917440;29;20324;-72
2022/11/24 12:27:25;;;;;;;7.10;0.80;;;11.80;99.90;;;;;;4916673;29;20206;-72
2022/11/24 12:30:10;;;;;;;3.57;0.80;;;11.80;99.90;;;;;;4915767;29;20214;-72
2022/11/24 12:33:11;;;;;;;3.00;0.70;;;11.70;99.90;;;;;;4917106;29;20649;-71
2022/11/24 12:35:42;;;;;;;3.17;0.90;;;11.60;99.90;;;;;;4916800;29;20212;-71
2022/11/24 12:38:27;;;;;;;6.33;0.97;;;11.60;99.90;;;;;;4911466;29;20245;-71
2022/11/24 12:41:29;;;;;;;1.87;0.73;;;11.60;99.90;;;;;;4898554;29;20216;-71
2022/11/24 12:43:59;;;;;;;4.27;0.80;;;11.70;99.90;;;;;;4911125;29;20686;-72
2022/11/24 12:46:36;;;;;;;2.73;0.90;;;11.70;99.90;;;;;;4916581;29;20206;-72
2022/11/24 12:49:15;;;;;;;3.67;0.53;;;11.80;99.90;;;;;;4916050;29;20629;-71
2022/11/24 12:51:44;;;;;;;5.93;1.20;;;11.90;99.90;;;;;;4915847;29;20210;-71
2022/11/24 12:54:14;;;;;;;3.77;0.90;;;12.00;99.90;;;;;;4915834;29;20239;-71
2022/11/24 12:56:47;;;;;;;5.13;0.93;;;12.10;99.90;;;;;;4915632;29;20229;-72
2022/11/24 12:59:27;;;;;;;4.43;0.87;;;12.10;99.90;;;;;;4915055;29;20213;-71
2022/11/24 13:02:04;;;;;;;2.13;0.53;;;12.20;99.90;;;;;;4916279;29;20219;-72
2022/11/24 13:04:37;;;;;;;4.30;1.00;;;12.10;99.90;;;;;;4913773;29;20229;-72
2022/11/24 13:07:11;;;;;;;3.53;0.70;;;12.10;99.90;;;;;;4898618;29;20214;-71
2022/11/24 13:09:37;;;;;;;6.97;0.90;;;12.10;99.90;;;;;;4916335;29;20300;-72
2022/11/24 13:12:13;;;;;;;4.57;0.87;;;12.00;99.90;;;;;;4915577;29;20202;-72
2022/11/24 13:14:43;;;;;;;2.63;0.60;;;12.00;99.90;;;;;;4914384;29;20251;-71
2022/11/24 13:17:30;;;;;;;6.10;0.80;;;11.90;99.90;;;;;;4916416;29;20237;-70
2022/11/24 13:20:16;;;;;;;4.33;0.97;;;11.90;99.90;;;;;;4915747;29;20217;-72
2022/11/24 13:22:48;;;;;;;4.03;1.00;;;11.90;99.90;;;;;;4915817;29;20217;-72
2022/11/24 13:25:19;;;;;;;9.47;0.90;;;12.10;99.90;;;;;;4916015;29;20297;-73
2022/11/24 13:27:49;;;;;;;3.03;0.70;;;12.10;99.90;;;;;;4916485;29;20205;-72
2022/11/24 13:30:58;;;;;;;6.90;0.90;;;12.10;99.90;;;;;;4915885;29;20217;-74
2022/11/24 13:33:37;;;;;;;7.00;0.80;;;12.10;99.90;;;;;;4915854;29;20229;-74
2022/11/24 13:36:32;;;;;;;5.53;1.00;;;12.00;99.90;;;;;;4914674;29;20297;-72
2022/11/24 13:39:00;;;;;;;3.20;0.60;;;11.90;99.90;;;;;;4913812;29;20220;-71
2022/11/24 13:42:07;;;;;;;9.70;1.17;;;11.90;99.90;;;;;;4915449;29;20206;-73
2022/11/24 13:44:45;;;;;;;6.83;0.80;;;11.90;99.90;;;;;;4916027;29;20791;-72
2022/11/24 13:47:33;;;;;;;9.20;0.90;;;11.80;99.90;;;;;;4915771;29;20695;-71
2022/11/24 13:50:02;;;;;;;5.03;1.20;;;11.80;99.90;;;;;;4916003;29;20604;-71
2022/11/24 13:53:06;;;;;;;6.77;0.80;;;11.70;99.90;;;;;;4915921;29;20218;-71
2022/11/24 13:55:37;;;;;;;3.77;1.17;;;11.60;99.90;;;;;;4909563;29;20216;-72
2022/11/24 13:58:27;;;;;;;6.50;0.90;;;11.50;99.90;;;;;;4916236;29;20332;-72
2022/11/24 14:01:03;;;;;;;5.80;1.20;;;11.40;99.90;;;;;;4916550;29;20296;-71
2022/11/24 14:03:33;;;;;;;3.23;1.17;;;11.40;99.90;;;;;;4916163;29;20229;-73
2022/11/24 14:06:03;;;;;;;7.13;1.50;;;11.30;99.90;;;;;;4915888;29;20214;-72
2022/11/24 14:08:32;;;;;;;4.20;1.10;;;11.30;99.90;;;;;;4916057;29;20304;-72
2022/11/24 14:11:01;;;;;;;7.87;1.20;;;11.30;99.90;;;;;;4916191;29;20256;-73
2022/11/24 14:13:30;;;;;;;4.73;0.90;;;11.30;99.90;;;;;;4916139;29;20233;-73
2022/11/24 14:16:03;;;;;;;6.57;1.10;;;11.30;99.90;;;;;;4916063;29;20665;-72
2022/11/24 14:18:31;;;;;;;2.97;0.80;;;11.30;99.90;;;;;;4918024;29;20238;-71
2022/11/24 14:20:59;;;;;;;2.37;1.03;;;11.30;99.90;;;;;;4919508;29;20210;-73
2022/11/24 14:23:28;;;;;;;5.37;1.10;;;11.30;99.90;;;;;;4919341;29;20321;-71
2022/11/24 14:25:54;;;;;;;8.17;1.20;;;11.30;99.90;;;;;;4919722;29;20210;-74
2022/11/24 14:28:24;;;;;;;6.03;1.37;;;11.20;99.90;;;;;;4919832;29;20220;-71
2022/11/24 14:31:06;;;;;;;6.63;0.90;;;11.20;99.90;;;;;;4919116;29;20221;-74
2022/11/24 14:33:33;;;;;;;7.83;0.80;;;11.20;99.90;;;;;;4919307;29;20248;-74
2022/11/24 14:36:00;;;;;;;4.03;0.80;;;11.20;99.90;;;;;;4919454;29;20564;-74
2022/11/24 14:38:28;;;;;;;7.67;1.33;;;11.20;99.90;;;;;;4918754;29;20237;-73
2022/11/24 14:40:56;;;;;;;5.10;0.73;;;11.20;99.90;;;;;;4919401;29;20210;-74
2022/11/24 14:43:27;;;;;;;5.47;1.27;;;11.20;99.90;;;;;;4919115;29;20236;-73
2022/11/24 14:45:57;;;;;;;8.73;1.00;;;11.10;99.90;;;;;;4919030;29;20661;-72
2022/11/24 14:48:27;;;;;;;2.77;0.97;;;11.10;99.90;;;;;;4919105;29;20213;-71
2022/11/24 14:51:04;;;;;;;9.07;1.03;;;11.00;99.90;;;;;;4919206;29;20210;-71
2022/11/24 14:53:34;;;;;;;7.67;1.23;;;11.00;99.90;;;;;;4919210;29;20237;-71
2022/11/24 14:56:08;;;;;;;3.53;0.93;;;11.00;99.90;;;;;;4918920;29;20217;-72
2022/11/24 14:58:35;;;;;;;4.70;0.97;;;10.90;99.90;;;;;;4918745;29;20611;-71
2022/11/24 15:01:22;;;;;;;3.50;0.83;;;10.90;99.90;;;;;;4918883;29;20220;-71
2022/11/24 15:04:22;;;;;;;10.47;1.00;;;10.90;99.90;;;;;;4919150;29;20736;-71
2022/11/24 15:07:01;;;;;;;5.90;0.70;;;10.90;99.90;;;;;;4918593;29;20205;-71
2022/11/24 15:09:33;;;;;;;5.13;0.70;;;10.90;99.90;;;;;;4918554;29;20213;-74
2022/11/24 15:12:06;;;;;;;6.07;1.10;;;10.90;99.90;;;;;;4918419;29;20214;-71
2022/11/24 15:14:39;;;;;;;5.53;0.70;;;10.80;99.90;;;;;;4918493;29;20235;-72
2022/11/24 15:17:06;;;;;;;3.63;0.73;;;10.80;99.90;;;;;;4918853;29;20209;-73
2022/11/24 15:19:36;;;;;;;3.77;0.90;;;10.70;99.90;;;;;;4918711;29;20209;-74
2022/11/24 15:22:27;;;;;;;9.53;1.50;;;10.70;99.90;;;;;;4918884;29;20348;-72
2022/11/24 15:24:55;;;;;;;6.47;1.40;;;10.60;99.90;;;;;;4918392;29;20261;-73
2022/11/24 15:27:22;;;;;;;10.90;1.20;;;10.60;99.90;;;;;;4918003;29;20218;-73
2022/11/24 15:29:49;;;;;;;5.13;0.97;;;10.60;99.90;;;;;;4916789;29;20653;-72
2022/11/24 15:32:16;;;;;;;6.80;1.00;;;10.60;99.90;;;;;;4917283;29;20205;-73
2022/11/24 15:34:43;;;;;;;6.00;1.30;;;10.60;99.90;;;;;;4917648;29;20317;-72
2022/11/24 15:37:11;;;;;;;5.40;0.90;;;10.60;99.90;;;;;;4917268;29;20673;-73
2022/11/24 15:39:37;;;;;;;4.93;1.23;;;10.60;99.90;;;;;;4916928;29;20202;-73
2022/11/24 15:42:06;;;;;;;9.83;1.63;;;10.60;99.90;;;;;;4915993;29;20216;-73
2022/11/24 15:44:33;;;;;;;4.00;1.37;;;10.50;99.90;;;;;;4916091;29;20240;-72
2022/11/24 15:47:00;;;;;;;4.23;1.30;;;10.50;99.90;;;;;;4916588;29;20617;-72
2022/11/24 15:49:27;;;;;;;6.60;1.60;;;10.50;99.90;;;;;;4917395;29;20221;-72
2022/11/24 15:51:54;;;;;;;4.23;0.80;;;10.40;99.90;;;;;;4917331;29;20225;-71
2022/11/24 15:54:20;;;;;;;7.63;1.10;;;10.40;99.90;;;;;;4917954;29;20232;-71
2022/11/24 15:56:47;;;;;;;4.13;0.93;;;10.40;99.90;;;;;;4918312;29;20324;-72
2022/11/24 15:59:16;;;;;;;6.37;1.20;;;10.30;99.90;;;;;;4918311;29;20243;-73
2022/11/24 16:01:44;;;;;;;3.97;0.90;;;10.30;99.90;;;;;;4918435;29;20572;-73
2022/11/24 16:04:12;;;;;;;4.93;1.30;;;10.20;99.90;;;;;;4918212;29;20562;-72
2022/11/24 16:06:39;;;;;;;2.60;1.10;;;10.30;99.90;;;;;;4917780;29;20696;-72
2022/11/24 16:09:07;;;;;;;5.30;0.90;;;10.20;99.90;;;;;;4917846;29;20842;-71
2022/11/24 16:11:34;;;;;;;4.87;1.07;;;10.10;99.90;;;;;;4918146;29;20236;-70
2022/11/24 16:14:00;;;;;;;8.00;1.93;;;10.00;99.90;;;;;;4918048;29;20552;-71
2022/11/24 16:16:28;;;;;;;5.90;1.20;;;10.00;99.90;;;;;;4917927;29;20216;-73
2022/11/24 16:18:55;;;;;;;5.43;0.90;;;9.90;99.90;;;;;;4917592;29;20716;-73
2022/11/24 16:21:22;;;;;;;6.47;0.90;;;9.90;99.90;;;;;;4917846;29;20236;-72
2022/11/24 16:23:49;;;;;;;4.23;1.10;;;9.90;99.90;;;;;;4917853;29;20232;-73
2022/11/24 16:26:16;;;;;;;8.27;1.80;;;9.90;99.90;;;;;;4917656;29;20597;-73
2022/11/24 16:28:44;;;;;;;4.30;1.37;;;9.90;99.90;;;;;;4917874;29;20225;-73
2022/11/24 16:31:11;;;;;;;3.77;0.93;;;9.90;99.90;;;;;;4917500;29;20299;-71
2022/11/24 16:33:39;;;;;;;3.77;1.10;;;9.80;99.90;;;;;;4917265;29;20240;-72
2022/11/24 16:36:07;;;;;;;6.43;1.10;;;9.80;99.90;;;;;;4917640;29;20214;-72
2022/11/24 16:38:34;;;;;;;9.07;1.40;;;9.80;99.90;;;;;;4917426;29;20296;-71
2022/11/24 16:41:01;;;;;;;4.60;1.50;;;9.80;99.90;;;;;;4917612;29;20213;-72
2022/11/24 16:43:29;;;;;;;5.57;1.30;;;9.80;99.90;;;;;;4917232;29;20229;-73
2022/11/24 16:46:15;;;;;;;6.10;1.47;;;9.80;99.90;;;;;;4917175;29;20290;-73
2022/11/24 16:48:44;;;;;;;7.80;1.30;;;9.70;99.90;;;;;;4917363;29;20209;-73
2022/11/24 16:51:12;;;;;;;5.97;1.77;;;9.70;99.90;;;;;;4917482;29;20209;-73
2022/11/24 16:53:39;;;;;;;7.00;1.63;;;9.60;99.90;;;;;;4916927;29;20286;-74
2022/11/24 16:56:07;;;;;;;13.17;1.90;;;9.60;99.90;;;;;;4917482;29;20622;-73
2022/11/24 16:58:34;;;;;;;3.93;1.87;;;9.60;99.90;;;;;;4917087;29;20243;-73
2022/11/24 17:01:03;;;;;;;4.73;1.97;;;9.60;99.90;;;;;;4917158;29;20300;-71
2022/11/24 17:03:32;;;;;;;5.63;1.90;;;9.50;99.90;;;;;;4917050;29;20233;-71
2022/11/24 17:06:01;;;;;;;4.47;1.80;;;9.50;99.90;;;;;;4917129;29;20216;-72
2022/11/24 17:08:31;;;;;;;4.53;1.70;;;9.50;99.90;;;;;;4916927;29;20696;-72
2022/11/24 17:10:58;;;;;;;4.50;1.20;;;9.40;99.90;;;;;;4916816;29;20302;-72
2022/11/24 17:13:24;;;;;;;8.27;1.97;;;9.40;99.90;;;;;;4916776;29;20771;-72
2022/11/24 17:15:51;;;;;;;6.73;1.60;;;9.50;99.90;;;;;;4917345;29;20210;-70
2022/11/24 17:18:18;;;;;;;7.03;1.67;;;9.50;99.90;;;;;;4916830;29;20336;-71
2022/11/24 17:20:45;;;;;;;5.27;1.60;;;9.50;99.90;;;;;;4917123;29;20209;-71
2022/11/24 17:23:13;;;;;;;10.50;1.67;;;9.40;99.90;;;;;;4916820;29;20237;-70
2022/11/24 17:25:40;;;;;;;5.43;1.53;;;9.40;99.90;;;;;;4916739;29;20213;-70
2022/11/24 17:28:06;;;;;;;10.50;2.70;;;9.40;99.90;;;;;;4917682;29;20223;-72
2022/11/24 17:30:33;;;;;;;4.47;1.60;;;9.40;99.90;;;;;;4916981;29;20205;-72
2022/11/24 17:33:00;;;;;;;9.43;3.37;;;9.30;99.90;;;;;;4917376;29;20210;-73
2022/11/24 17:35:27;;;;;;;10.73;2.33;;;9.20;99.90;;;;;;4916581;29;20644;-71
2022/11/24 17:37:55;;;;;;;4.93;1.93;;;9.20;99.90;;;;;;4916117;29;20217;-72
2022/11/24 17:40:24;;;;;;;12.70;1.90;;;9.20;99.90;;;;;;4917083;29;20292;-73
2022/11/24 17:42:50;;;;;;;8.67;1.73;;;9.30;99.90;;;;;;4916545;29;20665;-73
2022/11/24 17:45:17;;;;;;;4.50;1.20;;;9.20;99.90;;;;;;4916801;29;20213;-73
2022/11/24 17:47:44;;;;;;;3.50;1.20;;;9.20;99.90;;;;;;4916672;29;20209;-72
2022/11/24 17:50:11;;;;;;;9.77;1.30;;;9.20;99.90;;;;;;4915945;29;20210;-73
2022/11/24 17:52:38;;;;;;;4.63;1.30;;;9.20;99.90;;;;;;4916986;29;20220;-73
2022/11/24 17:55:06;;;;;;;6.90;1.30;;;9.20;99.90;;;;;;4920224;29;20205;-74
2022/11/24 17:57:34;;;;;;;6.73;2.17;;;9.20;99.90;;;;;;4920476;29;20217;-73
2022/11/24 18:00:01;;;;;;;9.23;1.30;;;9.10;99.90;;;;;;4920137;29;20241;-73
2022/11/24 18:02:27;;;;;;;5.00;1.40;;;9.10;99.90;;;;;;4919880;29;20560;-74
2022/11/24 18:04:54;;;;;;;6.73;1.50;;;9.10;99.90;;;;;;4919715;29;20229;-72
2022/11/24 18:07:21;;;;;;;10.77;1.83;;;9.10;99.90;;;;;;4916194;29;20201;-71
